createdAt,value
2018-08-09T00:01:27.748Z,24.58
2018-08-09T00:03:56.177Z,24.57
2018-08-09T00:06:24.554Z,24.54
2018-08-09T00:08:52.953Z,24.50
2018-08-09T00:11:21.334Z,24.48
2018-08-09T00:13:49.751Z,24.47
2018-08-09T00:16:18.123Z,24.46
2018-08-09T00:18:46.513Z,24.43
2018-08-09T00:21:14.886Z,24.42
2018-08-09T00:23:43.296Z,24.37
2018-08-09T00:26:11.667Z,24.34
2018-08-09T00:28:40.047Z,24.31
2018-08-09T00:31:09.025Z,24.28
2018-08-09T00:33:37.417Z,24.25
2018-08-09T00:36:05.785Z,24.23
2018-08-09T00:38:34.176Z,24.19
2018-08-09T00:41:02.547Z,24.14
2018-08-09T00:43:30.942Z,24.07
2018-08-09T00:45:59.307Z,24.05
2018-08-09T00:48:27.699Z,24.01
2018-08-09T00:50:56.073Z,24.00
2018-08-09T00:53:24.471Z,23.96
2018-08-09T00:55:52.843Z,23.92
2018-08-09T00:58:21.233Z,23.85
2018-08-09T01:00:49.603Z,23.86
2018-08-09T01:03:18.007Z,23.83
2018-08-09T01:05:46.383Z,23.83
2018-08-09T01:08:14.785Z,23.83
2018-08-09T01:10:43.154Z,23.81
2018-08-09T01:13:11.554Z,23.78
2018-08-09T01:15:39.937Z,23.76
2018-08-09T01:18:09.492Z,23.75
2018-08-09T01:20:37.886Z,23.74
2018-08-09T01:23:06.253Z,23.71
2018-08-09T01:25:34.845Z,23.67
2018-08-09T01:28:03.245Z,23.62
2018-08-09T01:30:31.631Z,23.58
2018-08-09T01:33:00.172Z,23.53
2018-08-09T01:35:28.577Z,23.51
2018-08-09T01:37:56.949Z,23.50
2018-08-09T01:40:25.333Z,23.47
2018-08-09T01:43:05.094Z,23.43
2018-08-09T01:45:33.489Z,23.41
2018-08-09T01:48:01.866Z,23.39
2018-08-09T01:50:30.271Z,23.35
2018-08-09T01:52:58.637Z,23.31
2018-08-09T01:55:27.034Z,23.27
2018-08-09T01:57:55.408Z,23.23
2018-08-09T02:00:23.801Z,23.17
2018-08-09T02:02:52.196Z,23.13
2018-08-09T02:05:20.598Z,23.08
2018-08-09T02:07:48.979Z,23.03
2018-08-09T02:10:17.374Z,22.98
2018-08-09T02:12:45.779Z,22.93
2018-08-09T02:15:14.175Z,22.89
2018-08-09T02:17:42.550Z,22.86
2018-08-09T02:20:10.958Z,22.83
2018-08-09T02:22:39.341Z,22.80
2018-08-09T02:25:07.738Z,22.76
2018-08-09T02:27:36.150Z,22.74
2018-08-09T02:30:05.661Z,22.71
2018-08-09T02:32:34.040Z,22.70
2018-08-09T02:35:02.432Z,22.69
2018-08-09T02:37:30.811Z,22.68
2018-08-09T02:39:59.209Z,22.69
2018-08-09T02:42:27.583Z,22.69
2018-08-09T02:44:55.987Z,22.68
2018-08-09T02:47:24.365Z,22.65
2018-08-09T02:49:52.791Z,22.62
2018-08-09T02:52:21.165Z,22.60
2018-08-09T02:54:49.561Z,22.56
2018-08-09T02:57:17.937Z,22.53
2018-08-09T02:59:46.333Z,22.50
2018-08-09T03:02:14.718Z,22.48
2018-08-09T03:04:43.130Z,22.45
2018-08-09T03:07:11.509Z,22.42
2018-08-09T03:09:39.890Z,22.39
2018-08-09T03:12:08.336Z,22.36
2018-08-09T03:14:36.714Z,22.36
2018-08-09T03:17:05.116Z,22.33
2018-08-09T03:19:33.506Z,22.32
2018-08-09T03:22:01.898Z,22.30
2018-08-09T03:24:30.434Z,22.28
2018-08-09T03:26:58.734Z,22.25
2018-08-09T03:29:27.111Z,22.24
2018-08-09T03:31:55.507Z,22.22
2018-08-09T03:34:23.890Z,22.21
2018-08-09T03:36:52.295Z,22.19
2018-08-09T03:39:20.681Z,22.16
2018-08-09T03:41:49.082Z,22.14
2018-08-09T03:44:17.458Z,22.12
2018-08-09T03:46:45.858Z,22.10
2018-08-09T03:49:14.246Z,22.08
2018-08-09T03:51:42.647Z,22.07
2018-08-09T03:54:11.019Z,22.05
2018-08-09T03:56:39.419Z,22.05
2018-08-09T03:59:07.819Z,22.05
2018-08-09T04:01:36.205Z,22.06
2018-08-09T04:04:04.587Z,22.07
2018-08-09T04:06:32.993Z,22.08
2018-08-09T04:09:01.374Z,22.11
2018-08-09T04:11:29.777Z,22.16
2018-08-09T04:13:58.186Z,22.20
2018-08-09T04:16:26.587Z,22.26
2018-08-09T04:18:54.972Z,22.31
2018-08-09T04:21:23.372Z,22.38
2018-08-09T04:23:51.747Z,22.43
2018-08-09T04:26:20.211Z,22.48
2018-08-09T04:28:48.562Z,22.50
2018-08-09T04:31:17.003Z,22.51
2018-08-09T04:33:45.382Z,22.54
2018-08-09T04:36:13.786Z,22.58
2018-08-09T04:38:42.409Z,22.60
2018-08-09T04:41:10.811Z,22.64
2018-08-09T04:43:39.186Z,22.69
2018-08-09T04:46:07.839Z,22.73
2018-08-09T04:48:36.334Z,22.76
2018-08-09T04:51:04.742Z,22.80
2018-08-09T04:53:33.309Z,22.85
2018-08-09T04:56:01.710Z,22.93
2018-08-09T04:58:30.143Z,22.98
2018-08-09T05:00:58.509Z,23.07
2018-08-09T05:03:26.914Z,23.15
2018-08-09T05:05:55.288Z,23.20
2018-08-09T05:08:23.690Z,23.24
2018-08-09T05:10:52.070Z,23.29
2018-08-09T05:13:20.495Z,23.29
2018-08-09T05:15:48.909Z,23.29
2018-08-09T05:18:17.302Z,23.31
2018-08-09T05:20:45.686Z,23.32
2018-08-09T05:23:14.131Z,23.28
2018-08-09T05:25:42.493Z,23.27
2018-08-09T05:28:10.896Z,23.31
2018-08-09T05:30:39.270Z,23.31
2018-08-09T05:33:07.667Z,23.31
2018-08-09T05:35:37.704Z,23.29
2018-08-09T05:38:06.323Z,23.28
2018-08-09T05:40:34.701Z,23.26
2018-08-09T05:43:03.107Z,23.26
2018-08-09T05:45:31.487Z,23.27
2018-08-09T05:47:59.881Z,23.29
2018-08-09T05:50:28.256Z,23.31
2018-08-09T05:52:56.707Z,23.32
2018-08-09T05:55:25.082Z,23.36
2018-08-09T05:57:53.596Z,23.42
2018-08-09T06:00:21.975Z,23.44
2018-08-09T06:02:50.382Z,23.46
2018-08-09T06:05:18.778Z,23.48
2018-08-09T06:07:47.164Z,23.51
2018-08-09T06:10:15.533Z,23.55
2018-08-09T06:12:43.959Z,23.60
2018-08-09T06:15:12.346Z,23.65
2018-08-09T06:17:40.750Z,23.69
2018-08-09T06:20:09.134Z,23.73
2018-08-09T06:22:37.542Z,23.77
2018-08-09T06:25:06.736Z,23.79
2018-08-09T06:27:35.149Z,23.81
2018-08-09T06:30:03.870Z,23.86
2018-08-09T06:32:32.271Z,23.93
2018-08-09T06:35:00.649Z,24.00
2018-08-09T06:37:29.043Z,24.08
2018-08-09T06:39:57.418Z,24.16
2018-08-09T06:42:25.826Z,24.23
2018-08-09T06:44:54.207Z,24.32
2018-08-09T06:47:22.641Z,24.39
2018-08-09T06:49:51.055Z,24.49
2018-08-09T06:52:19.467Z,24.56
2018-08-09T06:54:47.835Z,24.63
2018-08-09T06:57:16.370Z,24.68
2018-08-09T06:59:44.751Z,24.76
2018-08-09T07:02:13.162Z,24.86
2018-08-09T07:04:41.537Z,24.97
2018-08-09T07:07:09.925Z,25.05
2018-08-09T07:09:38.342Z,25.10
2018-08-09T07:12:06.755Z,25.13
2018-08-09T07:14:35.153Z,25.19
2018-08-09T07:17:03.886Z,25.26
2018-08-09T07:19:32.279Z,25.28
2018-08-09T07:22:00.645Z,25.30
2018-08-09T07:24:29.249Z,25.32
2018-08-09T07:26:57.634Z,25.39
2018-08-09T07:29:26.104Z,25.48
2018-08-09T07:31:54.477Z,25.56
2018-08-09T07:34:22.873Z,25.64
2018-08-09T07:36:51.335Z,25.72
2018-08-09T07:39:19.781Z,25.84
2018-08-09T07:41:48.136Z,25.93
2018-08-09T07:44:16.533Z,26.01
2018-08-09T07:46:44.898Z,26.09
2018-08-09T07:49:13.299Z,26.17
2018-08-09T07:51:41.675Z,26.27
2018-08-09T07:54:10.078Z,26.36
2018-08-09T07:56:38.449Z,26.42
2018-08-09T07:59:06.904Z,26.49
2018-08-09T08:01:35.279Z,26.57
2018-08-09T08:04:03.667Z,26.63
2018-08-09T08:06:32.047Z,26.69
2018-08-09T08:09:00.452Z,26.76
2018-08-09T08:11:28.825Z,26.80
2018-08-09T08:13:57.241Z,26.87
2018-08-09T08:16:25.609Z,26.91
2018-08-09T08:18:54.063Z,26.97
2018-08-09T08:21:22.433Z,27.01
2018-08-09T08:23:50.829Z,27.07
2018-08-09T08:26:19.210Z,27.15
2018-08-09T08:28:47.602Z,27.19
2018-08-09T08:31:15.970Z,27.20
2018-08-09T08:33:44.374Z,27.20
2018-08-09T08:36:12.735Z,27.22
2018-08-09T08:38:41.130Z,27.28
2018-08-09T08:41:09.513Z,27.42
2018-08-09T08:43:37.959Z,27.57
2018-08-09T08:46:06.570Z,27.74
2018-08-09T08:48:35.028Z,27.90
2018-08-09T08:51:03.411Z,28.05
2018-08-09T08:53:31.810Z,28.12
2018-08-09T08:56:00.187Z,28.16
2018-08-09T08:58:28.599Z,28.17
2018-08-09T09:00:56.990Z,28.15
2018-08-09T09:03:25.403Z,28.23
2018-08-09T09:05:53.806Z,28.27
2018-08-09T09:08:22.193Z,28.31
2018-08-09T09:10:53.550Z,28.38
2018-08-09T09:13:22.110Z,28.45
2018-08-09T09:15:50.510Z,28.51
2018-08-09T09:18:18.934Z,28.56
2018-08-09T09:20:47.377Z,28.63
2018-08-09T09:23:15.761Z,28.69
2018-08-09T09:25:44.150Z,28.69
2018-08-09T09:28:12.527Z,28.64
2018-08-09T09:30:40.913Z,28.54
2018-08-09T09:33:09.287Z,28.45
2018-08-09T09:35:37.678Z,28.33
2018-08-09T09:38:06.222Z,28.22
2018-08-09T09:40:34.629Z,28.16
2018-08-09T09:43:03.008Z,28.06
2018-08-09T09:45:31.430Z,28.00
2018-08-09T09:47:59.804Z,28.03
2018-08-09T09:50:28.201Z,28.07
2018-08-09T09:52:56.566Z,28.10
2018-08-09T09:55:24.953Z,28.16
2018-08-09T09:57:53.314Z,28.17
2018-08-09T10:00:27.130Z,28.25
2018-08-09T10:02:55.505Z,28.32
2018-08-09T10:05:23.903Z,28.47
2018-08-09T10:07:52.272Z,28.59
2018-08-09T10:10:20.679Z,28.73
2018-08-09T10:12:49.141Z,28.85
2018-08-09T10:15:17.526Z,28.99
2018-08-09T10:17:45.895Z,29.10
2018-08-09T10:20:14.294Z,29.18
2018-08-09T10:22:42.662Z,29.20
2018-08-09T10:25:11.058Z,29.28
2018-08-09T10:27:39.454Z,29.39
2018-08-09T10:30:08.440Z,29.45
2018-08-09T10:32:36.935Z,29.54
2018-08-09T10:35:05.343Z,29.64
2018-08-09T10:37:34.055Z,29.74
2018-08-09T10:40:02.479Z,29.78
2018-08-09T10:42:30.849Z,29.83
2018-08-09T10:44:59.245Z,29.90
2018-08-09T10:47:27.621Z,30.01
2018-08-09T10:49:56.006Z,30.10
2018-08-09T10:52:24.386Z,30.17
2018-08-09T10:54:52.781Z,30.26
2018-08-09T10:57:21.174Z,30.34
2018-08-09T10:59:49.565Z,30.42
2018-08-09T11:02:17.945Z,30.50
2018-08-09T11:04:46.363Z,30.51
2018-08-09T11:07:14.739Z,30.54
2018-08-09T11:09:43.113Z,30.58
2018-08-09T11:12:11.789Z,30.68
2018-08-09T11:14:40.163Z,30.76
2018-08-09T11:17:08.558Z,30.82
2018-08-09T11:19:36.938Z,30.88
2018-08-09T11:22:05.335Z,30.93
2018-08-09T11:24:33.715Z,30.96
2018-08-09T11:27:02.128Z,30.99
2018-08-09T11:29:30.510Z,31.02
2018-08-09T11:31:58.930Z,31.03
2018-08-09T11:34:27.313Z,31.05
2018-08-09T11:36:55.714Z,31.10
2018-08-09T11:39:24.099Z,31.17
2018-08-09T11:41:52.510Z,31.25
2018-08-09T11:44:20.895Z,31.32
2018-08-09T11:46:49.294Z,31.39
2018-08-09T11:49:17.716Z,31.45
2018-08-09T11:51:46.126Z,31.48
2018-08-09T11:54:14.498Z,31.54
2018-08-09T11:56:42.990Z,31.59
2018-08-09T11:59:11.306Z,31.66
2018-08-09T12:01:39.791Z,31.72
2018-08-09T12:04:08.347Z,31.76
2018-08-09T12:06:36.746Z,31.80
2018-08-09T12:09:08.011Z,31.88
2018-08-09T12:11:36.787Z,31.90
2018-08-09T12:14:05.747Z,31.91
2018-08-09T12:16:34.195Z,31.91
2018-08-09T12:19:02.585Z,31.93
2018-08-09T12:21:31.030Z,31.94
2018-08-09T12:23:59.475Z,31.97
2018-08-09T12:26:27.879Z,32.02
2018-08-09T12:28:56.259Z,32.07
2018-08-09T12:31:24.939Z,32.10
2018-08-09T12:33:53.441Z,32.14
2018-08-09T12:36:21.863Z,32.16
2018-08-09T12:38:50.368Z,32.23
2018-08-09T12:41:18.779Z,32.27
2018-08-09T12:43:47.911Z,32.30
2018-08-09T12:46:16.309Z,32.33
2018-08-09T12:48:44.707Z,32.38
2018-08-09T12:51:13.147Z,32.41
2018-08-09T12:53:41.539Z,32.42
2018-08-09T12:56:09.942Z,32.41
2018-08-09T12:58:38.722Z,32.42
2018-08-09T13:01:07.143Z,32.41
2018-08-09T13:03:35.560Z,32.33
2018-08-09T13:06:04.127Z,32.30
2018-08-09T13:08:32.516Z,32.30
2018-08-09T13:11:00.929Z,32.31
2018-08-09T13:13:29.357Z,32.34
2018-08-09T13:15:57.743Z,32.39
2018-08-09T13:18:26.154Z,32.43
2018-08-09T13:20:54.538Z,32.48
2018-08-09T13:23:22.945Z,32.56
2018-08-09T13:25:51.354Z,32.61
2018-08-09T13:28:19.760Z,32.66
2018-08-09T13:30:48.145Z,32.69
2018-08-09T13:33:16.561Z,32.67
2018-08-09T13:35:44.942Z,32.69
2018-08-09T13:38:13.352Z,32.74
2018-08-09T13:40:41.738Z,32.71
2018-08-09T13:43:10.150Z,32.65
2018-08-09T13:45:38.562Z,32.65
2018-08-09T13:48:07.069Z,32.65
2018-08-09T13:50:35.485Z,32.71
2018-08-09T13:53:03.910Z,32.81
2018-08-09T13:55:32.293Z,32.90
2018-08-09T13:58:00.710Z,32.96
2018-08-09T14:00:29.090Z,32.97
2018-08-09T14:02:57.490Z,33.00
2018-08-09T14:05:25.898Z,32.98
2018-08-09T14:07:54.298Z,32.93
2018-08-09T14:10:22.691Z,32.87
2018-08-09T14:12:51.128Z,32.76
2018-08-09T14:15:19.521Z,32.70
2018-08-09T14:17:47.966Z,32.61
2018-08-09T14:20:17.477Z,32.59
2018-08-09T14:22:45.901Z,32.64
2018-08-09T14:25:14.558Z,32.71
2018-08-09T14:27:43.049Z,32.84
2018-08-09T14:30:13.525Z,32.94
2018-08-09T14:32:42.266Z,33.00
2018-08-09T14:35:13.006Z,33.04
2018-08-09T14:37:42.154Z,33.06
2018-08-09T14:40:11.275Z,33.03
2018-08-09T14:42:39.713Z,32.98
2018-08-09T14:45:10.803Z,32.91
2018-08-09T14:47:39.243Z,32.77
2018-08-09T14:50:07.649Z,32.64
2018-08-09T14:52:36.371Z,32.58
2018-08-09T14:55:06.295Z,32.54
2018-08-09T14:57:34.731Z,32.46
2018-08-09T15:00:03.378Z,32.45
2018-08-09T15:02:31.796Z,32.44
2018-08-09T15:05:00.919Z,32.46
2018-08-09T15:07:29.327Z,32.47
2018-08-09T15:09:57.713Z,32.48
2018-08-09T15:12:26.150Z,32.55
2018-08-09T15:14:54.538Z,32.59
2018-08-09T15:17:22.946Z,32.60
2018-08-09T15:19:51.330Z,32.57
2018-08-09T15:22:19.727Z,32.53
2018-08-09T15:24:48.135Z,32.49
2018-08-09T15:27:16.539Z,32.48
2018-08-09T15:29:44.939Z,32.47
2018-08-09T15:32:13.331Z,32.41
2018-08-09T15:34:41.737Z,32.37
2018-08-09T15:37:10.136Z,32.36
2018-08-09T15:39:38.551Z,32.32
2018-08-09T15:42:06.973Z,32.31
2018-08-09T15:44:35.396Z,32.32
2018-08-09T15:47:03.774Z,32.32
2018-08-09T15:49:32.207Z,32.30
2018-08-09T15:52:00.592Z,32.27
2018-08-09T15:54:28.981Z,32.27
2018-08-09T15:56:57.359Z,32.28
2018-08-09T15:59:25.762Z,32.22
2018-08-09T16:01:54.322Z,32.20
2018-08-09T16:04:22.722Z,32.14
2018-08-09T16:06:51.125Z,32.09
2018-08-09T16:09:19.530Z,32.05
2018-08-09T16:11:47.917Z,32.04
2018-08-09T16:14:16.345Z,32.03
2018-08-09T16:16:44.724Z,32.04
2018-08-09T16:19:13.132Z,32.02
2018-08-09T16:21:41.518Z,31.97
2018-08-09T16:24:09.954Z,31.91
2018-08-09T16:26:38.334Z,31.89
2018-08-09T16:29:06.988Z,31.85
2018-08-09T16:31:35.371Z,31.84
2018-08-09T16:34:03.805Z,31.84
2018-08-09T16:36:32.178Z,31.81
2018-08-09T16:39:00.619Z,31.77
2018-08-09T16:41:29.003Z,31.79
2018-08-09T16:43:57.396Z,31.85
2018-08-09T16:46:25.846Z,31.95
2018-08-09T16:48:54.307Z,32.09
2018-08-09T16:51:22.697Z,32.22
2018-08-09T16:53:51.098Z,32.32
2018-08-09T16:56:19.482Z,32.37
2018-08-09T16:58:47.913Z,32.40
2018-08-09T17:01:17.145Z,32.42
2018-08-09T17:03:45.566Z,32.41
2018-08-09T17:06:13.946Z,32.41
2018-08-09T17:08:42.349Z,32.38
2018-08-09T17:11:10.734Z,32.31
2018-08-09T17:13:39.160Z,32.18
2018-08-09T17:16:07.555Z,32.00
2018-08-09T17:18:35.988Z,31.78
2018-08-09T17:21:04.390Z,31.55
2018-08-09T17:23:32.766Z,31.31
2018-08-09T17:26:01.167Z,31.11
2018-08-09T17:28:29.558Z,30.88
2018-08-09T17:30:57.957Z,30.67
2018-08-09T17:33:26.330Z,30.47
2018-08-09T17:35:54.750Z,30.28
2018-08-09T17:38:23.135Z,30.13
2018-08-09T17:40:51.549Z,29.99
2018-08-09T17:43:20.036Z,29.86
2018-08-09T17:45:48.426Z,29.70
2018-08-09T17:48:16.843Z,29.58
2018-08-09T17:50:45.254Z,29.43
2018-08-09T17:53:13.634Z,29.30
2018-08-09T17:55:42.032Z,29.18
2018-08-09T17:58:10.437Z,29.08
2018-08-09T18:00:38.838Z,28.99
2018-08-09T18:03:07.225Z,28.91
2018-08-09T18:05:35.631Z,28.82
2018-08-09T18:08:04.010Z,28.78
2018-08-09T18:10:33.944Z,28.71
2018-08-09T18:13:02.362Z,28.64
2018-08-09T18:15:31.526Z,28.56
2018-08-09T18:18:00.599Z,28.48
2018-08-09T18:20:30.631Z,28.42
2018-08-09T18:22:59.337Z,28.35
2018-08-09T18:25:27.759Z,28.28
2018-08-09T18:27:56.145Z,28.19
2018-08-09T18:30:24.596Z,28.12
2018-08-09T18:32:53.020Z,28.05
2018-08-09T18:35:21.466Z,27.95
2018-08-09T18:37:49.849Z,27.87
2018-08-09T18:40:21.146Z,27.83
2018-08-09T18:42:49.591Z,27.75
2018-08-09T18:45:18.182Z,27.68
2018-08-09T18:47:46.594Z,27.60
2018-08-09T18:50:18.025Z,27.52
2018-08-09T18:52:46.442Z,27.46
2018-08-09T18:55:15.755Z,27.38
2018-08-09T18:57:44.150Z,27.34
2018-08-09T19:00:16.315Z,27.29
2018-08-09T19:02:45.438Z,27.23
2018-08-09T19:05:13.894Z,27.16
2018-08-09T19:07:42.450Z,27.13
2018-08-09T19:10:12.755Z,27.08
2018-08-09T19:12:41.415Z,27.04
2018-08-09T19:15:11.054Z,27.00
2018-08-09T19:17:39.815Z,26.98
2018-08-09T19:20:13.979Z,26.92
2018-08-09T19:22:42.370Z,26.88
2018-08-09T19:25:10.791Z,26.84
2018-08-09T19:27:39.182Z,26.80
2018-08-09T19:30:08.491Z,26.76
2018-08-09T19:32:37.217Z,26.72
2018-08-09T19:35:07.638Z,26.67
2018-08-09T19:37:36.041Z,26.64
2018-08-09T19:40:04.954Z,26.61
2018-08-09T19:42:33.375Z,26.58
2018-08-09T19:45:01.758Z,26.56
2018-08-09T19:47:30.203Z,26.56
2018-08-09T19:49:58.596Z,26.55
2018-08-09T19:52:27.010Z,26.55
2018-08-09T19:54:55.394Z,26.50
2018-08-09T19:57:23.802Z,26.50
2018-08-09T19:59:52.196Z,26.48
2018-08-09T20:02:20.702Z,26.44
2018-08-09T20:04:49.074Z,26.41
2018-08-09T20:07:17.479Z,26.40
2018-08-09T20:09:45.856Z,26.40
2018-08-09T20:12:14.274Z,26.41
2018-08-09T20:14:42.655Z,26.42
2018-08-09T20:17:11.220Z,26.43
2018-08-09T20:19:39.595Z,26.46
2018-08-09T20:22:14.079Z,26.48
2018-08-09T20:24:42.584Z,26.50
2018-08-09T20:27:11.079Z,26.53
2018-08-09T20:29:39.503Z,26.51
2018-08-09T20:32:07.886Z,26.45
2018-08-09T20:34:36.262Z,26.40
2018-08-09T20:37:04.653Z,26.33
2018-08-09T20:39:33.022Z,26.21
2018-08-09T20:42:01.547Z,26.10
2018-08-09T20:44:29.934Z,25.95
2018-08-09T20:46:58.353Z,25.77
2018-08-09T20:49:26.732Z,25.59
2018-08-09T20:51:55.227Z,25.40
2018-08-09T20:54:23.794Z,25.22
2018-08-09T20:56:52.195Z,25.05
2018-08-09T20:59:20.570Z,24.86
2018-08-09T21:01:48.976Z,24.71
2018-08-09T21:04:17.509Z,24.57
2018-08-09T21:06:45.897Z,24.44
2018-08-09T21:09:14.367Z,24.33
2018-08-09T21:11:43.175Z,24.21
2018-08-09T21:14:11.595Z,24.13
2018-08-09T21:16:40.004Z,24.06
2018-08-09T21:19:08.562Z,24.01
2018-08-09T21:21:37.006Z,23.97
2018-08-09T21:24:05.419Z,23.93
2018-08-09T21:26:33.816Z,23.91
2018-08-09T21:29:02.190Z,23.89
2018-08-09T21:31:30.595Z,23.87
2018-08-09T21:33:58.962Z,23.84
2018-08-09T21:36:27.363Z,23.82
2018-08-09T21:38:55.757Z,23.80
2018-08-09T21:41:24.182Z,23.76
2018-08-09T21:43:52.541Z,23.71
2018-08-09T21:46:20.905Z,23.64
2018-08-09T21:48:49.307Z,23.57
2018-08-09T21:51:17.741Z,23.49
2018-08-09T21:53:46.142Z,23.43
2018-08-09T21:56:14.515Z,23.39
2018-08-09T21:58:42.915Z,23.36
2018-08-09T22:01:12.767Z,23.35
2018-08-09T22:03:41.212Z,23.33
2018-08-09T22:06:15.043Z,23.28
2018-08-09T22:08:48.763Z,23.25
2018-08-09T22:11:22.422Z,23.24
2018-08-09T22:13:56.019Z,23.22
2018-08-09T22:16:29.705Z,23.21
2018-08-09T22:19:03.451Z,23.21
2018-08-09T22:22:10.808Z,23.20
2018-08-09T22:24:39.560Z,23.20
2018-08-09T22:27:08.578Z,23.20
2018-08-09T22:29:36.958Z,23.18
2018-08-09T22:32:05.391Z,23.18
2018-08-09T22:34:33.774Z,23.17
2018-08-09T22:37:02.176Z,23.18
2018-08-09T22:39:30.587Z,23.20
2018-08-09T22:41:58.957Z,23.21
2018-08-09T22:44:27.346Z,23.20
2018-08-09T22:46:55.719Z,23.18
2018-08-09T22:49:24.119Z,23.16
2018-08-09T22:51:52.484Z,23.16
2018-08-09T22:54:20.888Z,23.17
2018-08-09T22:56:49.282Z,23.16
2018-08-09T22:59:18.589Z,23.16
2018-08-09T23:01:47.009Z,23.14
2018-08-09T23:04:15.414Z,23.12
2018-08-09T23:06:43.807Z,23.11
2018-08-09T23:09:12.466Z,23.10
2018-08-09T23:11:41.015Z,23.10
2018-08-09T23:14:09.443Z,23.07
2018-08-09T23:16:37.849Z,23.04
2018-08-09T23:19:06.250Z,23.01
2018-08-09T23:21:34.637Z,22.94
2018-08-09T23:24:03.063Z,22.90
2018-08-09T23:26:31.442Z,22.86
2018-08-09T23:28:59.854Z,22.84
2018-08-09T23:31:28.226Z,22.83
2018-08-09T23:33:56.650Z,22.84
2018-08-09T23:36:25.030Z,22.81
2018-08-09T23:38:53.439Z,22.77
2018-08-09T23:41:21.819Z,22.76
2018-08-09T23:43:50.237Z,22.76
2018-08-09T23:46:18.622Z,22.75
2018-08-09T23:48:47.022Z,22.72
2018-08-09T23:51:15.402Z,22.71
2018-08-09T23:53:43.806Z,22.71
2018-08-09T23:56:12.187Z,22.71
2018-08-09T23:58:40.602Z,22.70
